Cut Bank, MT

10:08 AM MDT on September 16, 2014 (GMT -0600)
Cut Bank Municipal | Change Station
CLOSE
Current Station
Airport
Location: Cut Bank,
Elevation: 3855 ft
Nearby Weather Stations

Elev 3855 ft 48.61 °N, 112.38 °W | Updated 12 minutes ago

Partly Cloudy
Partly Cloudy
54 °F
Feels Like 54 °F
N
7
Wind Variable Wind from NNE

Today
High -- | Low -- °F
--% Chance of Precip.
Yesterday
High -- | Low -- °F
Precip. -- in
7:07 AM 7:39 PM
Last Quarter, 44% visible
Pressure 29.98 in
Visibility 10.0 miles
Clouds Clear
Dew Point 41 °F
Humidity 62%
Rainfall 0.00 in
Snow Depth 0 in , 0 in , 0 in
UV 3 out of 12
Pollen 2.30 out of 12
Air Quality Not available.
Flu Activity Not available.
METAR KCTB 161556Z AUTO 02006KT 10SM CLR 12/05 A3000 RMK AO2 SLP152 T01220050

More Conditions Fewer Conditions

Pressure 29.98 in
Visibility 10.0 miles
Clouds Clear
Dew Point 41 °F
Humidity 62%
Rainfall 0.00 in
Snow Depth 0 in , 0 in , 0 in
UV 3 out of 12
Pollen 2.30 out of 12
Air Quality Not available.
Flu Activity Not available.
METAR KCTB 161556Z AUTO 02006KT 10SM CLR 12/05 A3000 RMK AO2 SLP152 T01220050

More Conditions Fewer Conditions

10-Day Weather Forecast

Almanac

Astronomy

Sep. 16, 2014 Rise Set
Actual Time 7:07 AM MDT 7:39 PM MDT
Civil Twilight 6:36 AM MDT 8:11 PM MDT
Nautical Twilight 5:58 AM MDT 8:48 PM MDT
Astronomical Twilight 5:19 AM MDT 9:27 PM MDT
Moon No Moon Rise 3:27 PM MDT
Length of Visible Light 13h 35m
Length of Day
12h 32m
Tomorrow will be 3m 32s shorter.
Last Quarter, 44% of the Moon is Illuminated
Today
Last Quarter
Sep 24
New
Oct 1
First Quarter
Oct 8
Full
Oct 15
Last Quarter

Today's Extremes

State Highs State Lows

Community

WunderPhotos

Upload Photos

1,753,817 photos uploaded!

Nearby

Snow Depth

Station Depth Elevation
Emery Creek 1 in 4350 ft
Lone Mountain 0 in 8880 ft
Rocky Boy 0 in 4700 ft
Rocker Peak 0 in 8000 ft
Barker Lakes 0 in 8250 ft

Earthquake Activity

City Distance Mag. Time & Date
No recent earthquake activity has been reported nearby.
Minimum magnitude displayed is 2.5.

Coastal Water Temperatures

Place Temperature
No Stations Reporting

Nearby Weather Stations